createdAt,value
2022-10-18T00:01:05.671Z,101140.00
2022-10-18T00:03:34.077Z,101141.00
2022-10-18T00:06:02.880Z,101148.00
2022-10-18T00:08:30.499Z,101143.00
2022-10-18T00:10:58.026Z,101143.00
2022-10-18T00:13:25.631Z,101148.00
2022-10-18T00:15:57.285Z,101144.00
2022-10-18T00:18:24.936Z,101154.00
2022-10-18T00:21:07.273Z,101156.00
2022-10-18T00:23:36.491Z,101143.00
2022-10-18T00:26:12.583Z,101153.00
2022-10-18T00:28:41.603Z,101150.00
2022-10-18T00:31:16.997Z,101163.00
2022-10-18T00:33:48.317Z,101163.00
2022-10-18T00:36:15.960Z,101155.00
2022-10-18T00:38:44.328Z,101155.00
2022-10-18T00:41:18.119Z,101156.00
2022-10-18T00:44:12.079Z,101164.00
2022-10-18T00:46:48.203Z,101164.00
2022-10-18T00:49:29.190Z,101159.00
2022-10-18T00:52:23.986Z,101160.00
2022-10-18T00:54:52.783Z,101162.00
2022-10-18T00:57:20.252Z,101159.00
2022-10-18T00:59:48.527Z,101167.00
2022-10-18T01:02:18.417Z,101163.00
2022-10-18T01:04:47.526Z,101155.00
2022-10-18T01:07:26.642Z,101157.00
2022-10-18T01:10:28.275Z,101159.00
2022-10-18T01:13:29.299Z,101164.00
2022-10-18T01:16:23.963Z,101164.00
2022-10-18T01:19:17.834Z,101170.00
2022-10-18T01:21:54.593Z,101178.00
2022-10-18T01:24:47.543Z,101170.00
2022-10-18T01:27:47.082Z,101167.00
2022-10-18T01:30:56.558Z,101164.00
2022-10-18T01:33:42.224Z,101163.00
2022-10-18T01:36:41.075Z,101163.00
2022-10-18T01:39:22.189Z,101164.00
2022-10-18T01:41:52.291Z,101153.00
2022-10-18T01:44:25.708Z,101166.00
2022-10-18T01:46:55.766Z,101164.00
2022-10-18T01:49:27.019Z,101168.00
2022-10-18T01:51:57.326Z,101168.00
2022-10-18T01:54:38.202Z,101161.00
2022-10-18T01:57:24.875Z,101163.00
2022-10-18T02:00:42.939Z,101166.00
2022-10-18T02:03:23.145Z,101154.00
2022-10-18T02:06:32.719Z,101168.00
2022-10-18T02:09:42.286Z,101160.00
2022-10-18T02:12:13.033Z,101163.00
2022-10-18T02:14:43.546Z,101154.00
2022-10-18T02:17:13.386Z,101158.00
2022-10-18T02:19:54.628Z,101160.00
2022-10-18T02:22:27.085Z,101165.00
2022-10-18T02:24:58.124Z,101152.00
2022-10-18T02:27:25.775Z,101166.00
2022-10-18T02:29:54.180Z,101164.00
2022-10-18T02:32:41.638Z,101163.00
2022-10-18T02:35:26.650Z,101165.00
2022-10-18T02:37:55.566Z,101165.00
2022-10-18T02:40:23.930Z,101147.00
2022-10-18T02:42:56.280Z,101144.00
2022-10-18T02:45:25.475Z,101149.00
2022-10-18T02:47:53.799Z,101154.00
2022-10-18T02:50:21.397Z,101151.00
2022-10-18T02:52:48.822Z,101147.00
2022-10-18T02:55:16.738Z,101144.00
2022-10-18T02:57:44.533Z,101146.00
2022-10-18T03:00:13.012Z,101133.00
2022-10-18T03:02:40.538Z,101129.00
2022-10-18T03:05:08.497Z,101133.00
2022-10-18T03:07:35.911Z,101124.00
2022-10-18T03:10:03.818Z,101128.00
2022-10-18T03:12:31.464Z,101129.00
2022-10-18T03:14:59.188Z,101131.00
2022-10-18T03:17:26.710Z,101141.00
2022-10-18T03:19:54.148Z,101142.00
2022-10-18T03:22:21.758Z,101136.00
2022-10-18T03:24:49.213Z,101132.00
2022-10-18T03:27:16.750Z,101136.00
2022-10-18T03:29:44.254Z,101134.00
2022-10-18T03:32:11.942Z,101126.00
2022-10-18T03:34:39.435Z,101120.00
2022-10-18T03:37:07.585Z,101126.00
2022-10-18T03:39:35.063Z,101130.00
2022-10-18T03:42:02.623Z,101137.00
2022-10-18T03:44:30.127Z,101134.00
2022-10-18T03:46:57.716Z,101138.00
2022-10-18T03:49:25.342Z,101123.00
2022-10-18T03:51:52.756Z,101120.00
2022-10-18T03:54:20.197Z,101115.00
2022-10-18T03:56:47.452Z,101120.00
2022-10-18T03:59:17.211Z,101116.00
2022-10-18T04:01:44.894Z,101113.00
2022-10-18T04:04:12.424Z,101112.00
2022-10-18T04:06:39.917Z,101106.00
2022-10-18T04:09:10.202Z,101106.00
2022-10-18T04:11:37.838Z,101100.00
2022-10-18T04:14:05.303Z,101100.00
2022-10-18T04:16:32.866Z,101105.00
2022-10-18T04:19:00.400Z,101102.00
2022-10-18T04:21:27.910Z,101113.00
2022-10-18T04:23:55.403Z,101119.00
2022-10-18T04:26:23.056Z,101110.00
2022-10-18T04:28:50.661Z,101116.00
2022-10-18T04:31:18.194Z,101112.00
2022-10-18T04:33:45.645Z,101105.00
2022-10-18T04:36:13.423Z,101103.00
2022-10-18T04:38:41.054Z,101108.00
2022-10-18T04:41:08.613Z,101113.00
2022-10-18T04:43:36.172Z,101104.00
2022-10-18T04:46:03.835Z,101107.00
2022-10-18T04:48:31.423Z,101104.00
2022-10-18T04:50:58.977Z,101099.00
2022-10-18T04:53:26.294Z,101104.00
2022-10-18T04:55:53.548Z,101104.00
2022-10-18T04:58:20.964Z,101107.00
2022-10-18T05:00:48.585Z,101092.00
2022-10-18T05:03:16.852Z,101090.00
2022-10-18T05:06:03.267Z,101096.00
2022-10-18T05:08:35.683Z,101093.00
2022-10-18T05:11:04.411Z,101094.00
2022-10-18T05:13:32.117Z,101107.00
2022-10-18T05:16:00.459Z,101107.00
2022-10-18T05:18:28.067Z,101107.00
2022-10-18T05:20:55.482Z,101111.00
2022-10-18T05:23:23.284Z,101115.00
2022-10-18T05:25:51.322Z,101112.00
2022-10-18T05:28:38.629Z,101115.00
2022-10-18T05:31:08.920Z,101128.00
2022-10-18T05:33:36.683Z,101130.00
2022-10-18T05:36:04.903Z,101133.00
2022-10-18T05:38:32.656Z,101130.00
2022-10-18T05:41:04.697Z,101136.00
2022-10-18T05:43:32.160Z,101134.00
2022-10-18T05:45:59.604Z,101123.00
2022-10-18T05:48:27.214Z,101128.00
2022-10-18T05:50:54.640Z,101128.00
2022-10-18T05:53:36.381Z,101123.00
2022-10-18T05:56:05.728Z,101127.00
2022-10-18T05:58:33.514Z,101126.00
2022-10-18T06:01:03.424Z,101131.00
2022-10-18T06:03:31.260Z,101135.00
2022-10-18T06:06:09.776Z,101134.00
2022-10-18T06:08:38.332Z,101142.00
2022-10-18T06:11:13.698Z,101144.00
2022-10-18T06:13:47.710Z,101147.00
2022-10-18T06:16:18.633Z,101151.00
2022-10-18T06:18:51.074Z,101145.00
2022-10-18T06:21:19.457Z,101143.00
2022-10-18T06:23:57.476Z,101134.00
2022-10-18T06:26:27.204Z,101135.00
2022-10-18T06:28:54.811Z,101136.00
2022-10-18T06:31:22.311Z,101132.00
2022-10-18T06:33:50.137Z,101132.00
2022-10-18T06:36:24.744Z,101129.00
2022-10-18T06:38:52.258Z,101140.00
2022-10-18T06:41:20.636Z,101135.00
2022-10-18T06:43:53.674Z,101135.00
2022-10-18T06:46:21.141Z,101136.00
2022-10-18T06:48:48.760Z,101137.00
2022-10-18T06:51:16.344Z,101139.00
2022-10-18T06:53:59.323Z,101141.00
2022-10-18T06:56:36.033Z,101140.00
2022-10-18T06:59:03.782Z,101147.00
2022-10-18T07:01:31.531Z,101156.00
2022-10-18T07:03:59.036Z,101153.00
2022-10-18T07:06:26.617Z,101156.00
2022-10-18T07:08:54.467Z,101162.00
2022-10-18T07:11:25.496Z,101155.00
2022-10-18T07:14:04.973Z,101156.00
2022-10-18T07:16:34.341Z,101150.00
2022-10-18T07:19:01.989Z,101161.00
2022-10-18T07:21:29.543Z,101154.00
2022-10-18T07:23:57.308Z,101164.00
2022-10-18T07:26:31.549Z,101165.00
2022-10-18T07:29:08.211Z,101165.00
2022-10-18T07:31:36.977Z,101173.00
2022-10-18T07:34:06.239Z,101177.00
2022-10-18T07:36:34.417Z,101176.00
2022-10-18T07:39:01.817Z,101175.00
2022-10-18T07:41:30.213Z,101171.00
2022-10-18T07:43:57.653Z,101178.00
2022-10-18T07:46:25.332Z,101176.00
2022-10-18T07:48:52.971Z,101167.00
2022-10-18T07:51:21.785Z,101172.00
2022-10-18T07:53:49.548Z,101172.00
2022-10-18T07:56:21.810Z,101175.00
2022-10-18T07:58:54.721Z,101174.00
2022-10-18T08:01:24.063Z,101175.00
2022-10-18T08:03:52.649Z,101178.00
2022-10-18T08:06:21.855Z,101174.00
2022-10-18T08:08:49.589Z,101172.00
2022-10-18T08:11:21.746Z,101176.00
2022-10-18T08:13:49.734Z,101170.00
2022-10-18T08:16:21.896Z,101172.00
2022-10-18T08:18:49.811Z,101178.00
2022-10-18T08:21:19.797Z,101171.00
2022-10-18T08:23:48.132Z,101173.00
2022-10-18T08:26:18.785Z,101178.00
2022-10-18T08:28:53.967Z,101179.00
2022-10-18T08:31:26.651Z,101174.00
2022-10-18T08:33:57.285Z,101173.00
2022-10-18T08:36:25.264Z,101178.00
2022-10-18T08:38:52.854Z,101173.00
2022-10-18T08:41:42.649Z,101176.00
2022-10-18T08:44:25.473Z,101171.00
2022-10-18T08:46:59.206Z,101177.00
2022-10-18T08:49:51.171Z,101171.00
2022-10-18T08:52:36.303Z,101169.00
2022-10-18T08:55:11.453Z,101164.00
2022-10-18T08:57:38.798Z,101172.00
2022-10-18T09:00:18.774Z,101170.00
2022-10-18T09:03:04.889Z,101170.00
2022-10-18T09:06:30.116Z,101177.00
2022-10-18T09:09:34.391Z,101180.00
2022-10-18T09:12:25.634Z,101181.00
2022-10-18T09:15:52.029Z,101177.00
2022-10-18T09:18:48.614Z,101178.00
2022-10-18T09:21:40.406Z,101171.00
2022-10-18T09:24:26.262Z,101171.00
2022-10-18T09:27:12.573Z,101169.00
2022-10-18T09:29:58.609Z,101179.00
2022-10-18T09:33:04.479Z,101181.00
2022-10-18T09:35:44.148Z,101188.00
2022-10-18T09:38:16.937Z,101191.00
2022-10-18T09:41:21.734Z,101194.00
2022-10-18T09:43:59.148Z,101192.00
2022-10-18T09:46:33.000Z,101196.00
2022-10-18T09:49:23.666Z,101190.00
2022-10-18T09:51:53.961Z,101196.00
2022-10-18T09:54:32.633Z,101193.00
2022-10-18T09:57:10.563Z,101197.00
2022-10-18T09:59:42.977Z,101200.00
2022-10-18T10:02:19.001Z,101201.00
2022-10-18T10:04:46.737Z,101204.00
2022-10-18T10:07:42.919Z,101194.00
2022-10-18T10:10:26.253Z,101193.00
2022-10-18T10:13:23.087Z,101196.00
2022-10-18T10:16:01.165Z,101199.00
2022-10-18T10:18:35.161Z,101202.00
2022-10-18T10:21:13.878Z,101202.00
2022-10-18T10:23:57.658Z,101209.00
2022-10-18T10:26:28.967Z,101205.00
2022-10-18T10:28:56.541Z,101203.00
2022-10-18T10:31:32.165Z,101206.00
2022-10-18T10:34:06.116Z,101215.00
2022-10-18T10:36:35.270Z,101209.00
2022-10-18T10:39:11.481Z,101205.00
2022-10-18T10:41:41.150Z,101203.00
2022-10-18T10:44:20.079Z,101211.00
2022-10-18T10:46:50.825Z,101199.00
2022-10-18T10:49:50.699Z,101209.00
2022-10-18T10:52:27.248Z,101204.00
2022-10-18T10:57:50.394Z,101204.00
2022-10-18T11:00:44.479Z,101203.00
2022-10-18T11:03:34.545Z,101208.00
2022-10-18T11:06:02.234Z,101199.00
2022-10-18T11:08:40.174Z,101198.00
2022-10-18T11:11:28.164Z,101212.00
2022-10-18T11:14:25.165Z,101196.00
2022-10-18T11:17:41.076Z,101204.00
2022-10-18T11:20:11.759Z,101205.00
2022-10-18T11:23:24.878Z,101202.00
2022-10-18T11:26:13.401Z,101201.00
2022-10-18T11:29:10.974Z,101214.00
2022-10-18T11:32:22.260Z,101195.00
2022-10-18T11:35:09.270Z,101191.00
2022-10-18T11:38:27.882Z,101201.00
2022-10-18T11:41:23.732Z,101199.00
2022-10-18T11:44:32.257Z,101188.00
2022-10-18T11:47:26.180Z,101194.00
2022-10-18T11:50:36.018Z,101198.00
2022-10-18T11:53:24.946Z,101201.00
2022-10-18T11:56:20.689Z,101193.00
2022-10-18T11:59:40.602Z,101196.00
2022-10-18T12:02:47.102Z,101188.00
2022-10-18T12:05:24.956Z,101193.00
2022-10-18T12:08:09.541Z,101193.00
2022-10-18T12:10:53.220Z,101187.00
2022-10-18T12:13:54.958Z,101187.00
2022-10-18T12:16:49.346Z,101193.00
2022-10-18T12:19:33.221Z,101181.00
2022-10-18T12:22:23.005Z,101180.00
2022-10-18T12:24:51.033Z,101169.00
2022-10-18T12:27:19.543Z,101176.00
2022-10-18T12:30:07.677Z,101173.00
2022-10-18T12:32:37.253Z,101173.00
2022-10-18T12:35:16.369Z,101165.00
2022-10-18T12:38:07.970Z,101174.00
2022-10-18T12:40:45.455Z,101156.00
2022-10-18T12:43:26.255Z,101164.00
2022-10-18T12:45:56.338Z,101169.00
2022-10-18T12:48:51.254Z,101158.00
2022-10-18T12:51:22.279Z,101155.00
2022-10-18T12:54:10.970Z,101154.00
2022-10-18T12:56:47.876Z,101147.00
2022-10-18T12:59:15.482Z,101154.00
2022-10-18T13:02:06.166Z,101155.00
2022-10-18T13:04:38.437Z,101147.00
2022-10-18T13:07:05.791Z,101153.00
2022-10-18T13:09:43.004Z,101156.00
2022-10-18T13:12:10.305Z,101155.00
2022-10-18T13:15:26.946Z,101157.00
2022-10-18T13:18:45.126Z,101158.00
2022-10-18T13:21:58.409Z,101161.00
2022-10-18T13:24:39.825Z,101159.00
2022-10-18T13:27:42.625Z,101170.00
2022-10-18T13:30:16.269Z,101164.00
2022-10-18T13:33:06.751Z,101164.00
2022-10-18T13:36:26.586Z,101164.00
2022-10-18T13:39:06.174Z,101170.00
2022-10-18T13:41:43.484Z,101164.00
2022-10-18T13:44:43.702Z,101167.00
2022-10-18T13:47:19.732Z,101171.00
2022-10-18T13:49:49.799Z,101170.00
2022-10-18T13:52:54.732Z,101168.00
2022-10-18T13:55:55.807Z,101172.00
2022-10-18T13:59:13.492Z,101174.00
2022-10-18T14:01:56.051Z,101165.00
2022-10-18T14:05:10.590Z,101171.00
2022-10-18T14:07:44.825Z,101173.00
2022-10-18T14:10:50.232Z,101174.00
2022-10-18T14:13:33.649Z,101178.00
2022-10-18T14:17:00.387Z,101178.00
2022-10-18T14:19:39.733Z,101176.00
2022-10-18T14:22:43.622Z,101176.00
2022-10-18T14:25:38.926Z,101185.00
2022-10-18T14:28:31.568Z,101184.00
2022-10-18T14:31:07.410Z,101186.00
2022-10-18T14:33:57.662Z,101185.00
2022-10-18T14:36:37.181Z,101183.00
2022-10-18T14:39:06.903Z,101189.00
2022-10-18T14:41:48.985Z,101190.00
2022-10-18T14:44:16.334Z,101196.00
2022-10-18T14:46:50.620Z,101189.00
2022-10-18T14:49:20.852Z,101194.00
2022-10-18T14:51:53.511Z,101200.00
2022-10-18T14:54:32.149Z,101205.00
2022-10-18T14:57:05.398Z,101199.00
2022-10-18T14:59:58.273Z,101207.00
2022-10-18T15:02:31.853Z,101197.00
2022-10-18T15:05:21.387Z,101205.00
2022-10-18T15:07:51.235Z,101208.00
2022-10-18T15:10:24.369Z,101205.00
2022-10-18T15:13:10.273Z,101209.00
2022-10-18T15:15:39.599Z,101202.00
2022-10-18T15:18:08.504Z,101202.00
2022-10-18T15:20:43.058Z,101206.00
2022-10-18T15:23:32.664Z,101212.00
2022-10-18T15:26:30.707Z,101211.00
2022-10-18T15:29:01.519Z,101215.00
2022-10-18T15:31:40.369Z,101219.00
2022-10-18T15:34:26.509Z,101214.00
2022-10-18T15:36:56.308Z,101211.00
2022-10-18T15:39:32.162Z,101215.00
2022-10-18T15:42:01.732Z,101217.00
2022-10-18T15:44:53.842Z,101208.00
2022-10-18T15:47:23.228Z,101216.00
2022-10-18T15:49:58.138Z,101209.00
2022-10-18T15:52:33.789Z,101214.00
2022-10-18T15:55:33.943Z,101221.00
2022-10-18T15:58:09.994Z,101221.00
2022-10-18T16:00:37.495Z,101229.00
2022-10-18T16:03:04.884Z,101229.00
2022-10-18T16:05:32.231Z,101229.00
2022-10-18T16:08:02.448Z,101221.00
2022-10-18T16:10:30.044Z,101232.00
2022-10-18T16:12:57.544Z,101229.00
2022-10-18T16:15:25.005Z,101225.00
2022-10-18T16:17:52.906Z,101229.00
2022-10-18T16:20:25.390Z,101225.00
2022-10-18T16:22:52.849Z,101231.00
2022-10-18T16:25:20.370Z,101244.00
2022-10-18T16:27:47.837Z,101243.00
2022-10-18T16:30:19.334Z,101244.00
2022-10-18T16:32:49.169Z,101249.00
2022-10-18T16:35:16.715Z,101250.00
2022-10-18T16:37:44.139Z,101253.00
2022-10-18T16:40:26.858Z,101243.00
2022-10-18T16:42:54.618Z,101256.00
2022-10-18T16:45:22.178Z,101254.00
2022-10-18T16:47:49.476Z,101250.00
2022-10-18T16:50:20.499Z,101262.00
2022-10-18T16:52:47.961Z,101262.00
2022-10-18T16:55:21.210Z,101252.00
2022-10-18T16:57:50.497Z,101258.00
2022-10-18T17:00:22.578Z,101259.00
2022-10-18T17:02:50.945Z,101262.00
2022-10-18T17:05:19.293Z,101273.00
2022-10-18T17:07:48.360Z,101272.00
2022-10-18T17:10:20.914Z,101264.00
2022-10-18T17:12:48.415Z,101274.00
2022-10-18T17:15:15.933Z,101275.00
2022-10-18T17:17:43.420Z,101266.00
2022-10-18T17:20:26.458Z,101275.00
2022-10-18T17:22:54.492Z,101284.00
2022-10-18T17:25:21.863Z,101288.00
2022-10-18T17:27:49.482Z,101291.00
2022-10-18T17:30:18.109Z,101292.00
2022-10-18T17:32:45.598Z,101293.00
2022-10-18T17:35:13.772Z,101289.00
2022-10-18T17:37:44.077Z,101296.00
2022-10-18T17:40:13.769Z,101304.00
2022-10-18T17:42:41.710Z,101307.00
2022-10-18T17:45:10.266Z,101295.00
2022-10-18T17:47:37.825Z,101305.00
2022-10-18T17:50:05.672Z,101311.00
2022-10-18T17:52:33.257Z,101304.00
2022-10-18T17:55:00.835Z,101311.00
2022-10-18T17:57:28.530Z,101312.00
2022-10-18T17:59:56.876Z,101318.00
2022-10-18T18:02:27.079Z,101322.00
2022-10-18T18:04:55.554Z,101320.00
2022-10-18T18:07:23.343Z,101331.00
2022-10-18T18:09:50.835Z,101322.00
2022-10-18T18:12:18.445Z,101330.00
2022-10-18T18:14:45.879Z,101336.00
2022-10-18T18:17:13.999Z,101336.00
2022-10-18T18:19:41.619Z,101340.00
2022-10-18T18:22:09.202Z,101342.00
2022-10-18T18:24:36.594Z,101350.00
2022-10-18T18:27:03.947Z,101350.00
2022-10-18T18:29:31.294Z,101343.00
2022-10-18T18:31:59.998Z,101350.00
2022-10-18T18:34:27.744Z,101356.00
2022-10-18T18:36:55.608Z,101360.00
2022-10-18T18:39:29.337Z,101359.00
2022-10-18T18:41:57.083Z,101351.00
2022-10-18T18:44:25.241Z,101357.00
2022-10-18T18:46:52.813Z,101356.00
2022-10-18T18:49:20.570Z,101345.00
2022-10-18T18:51:48.270Z,101334.00
2022-10-18T18:54:16.408Z,101340.00
2022-10-18T18:56:43.901Z,101329.00
2022-10-18T18:59:14.713Z,101336.00
2022-10-18T19:01:43.472Z,101332.00
2022-10-18T19:04:11.398Z,101332.00
2022-10-18T19:06:44.744Z,101338.00
2022-10-18T19:09:20.966Z,101344.00
2022-10-18T19:11:53.881Z,101351.00
2022-10-18T19:14:24.379Z,101345.00
2022-10-18T19:16:59.326Z,101346.00
2022-10-18T19:19:30.026Z,101349.00
2022-10-18T19:22:01.179Z,101349.00
2022-10-18T19:24:30.491Z,101346.00
2022-10-18T19:27:05.399Z,101340.00
2022-10-18T19:29:36.169Z,101341.00
2022-10-18T19:32:09.124Z,101334.00
2022-10-18T19:34:36.654Z,101338.00
2022-10-18T19:37:04.721Z,101342.00
2022-10-18T19:39:34.630Z,101335.00
2022-10-18T19:42:15.663Z,101340.00
2022-10-18T19:44:45.980Z,101335.00
2022-10-18T19:47:14.907Z,101337.00
2022-10-18T19:49:43.243Z,101342.00
2022-10-18T19:52:12.463Z,101344.00
2022-10-18T19:54:40.095Z,101351.00
2022-10-18T19:57:07.921Z,101352.00
2022-10-18T19:59:36.291Z,101351.00
2022-10-18T20:02:04.958Z,101370.00
2022-10-18T20:04:34.963Z,101367.00
2022-10-18T20:07:03.091Z,101377.00
2022-10-18T20:09:30.602Z,101372.00
2022-10-18T20:11:58.047Z,101377.00
2022-10-18T20:14:25.656Z,101372.00
2022-10-18T20:16:53.171Z,101377.00
2022-10-18T20:19:20.791Z,101382.00
2022-10-18T20:21:48.251Z,101377.00
2022-10-18T20:24:15.586Z,101386.00
2022-10-18T20:26:43.921Z,101387.00
2022-10-18T20:29:11.962Z,101377.00
2022-10-18T20:31:39.581Z,101390.00
2022-10-18T20:34:11.601Z,101394.00
2022-10-18T20:36:40.017Z,101393.00
2022-10-18T20:39:07.971Z,101392.00
2022-10-18T20:41:42.952Z,101393.00
2022-10-18T20:44:14.910Z,101392.00
2022-10-18T20:46:43.289Z,101388.00
2022-10-18T20:49:16.555Z,101391.00
2022-10-18T20:51:44.241Z,101402.00
2022-10-18T20:54:12.496Z,101404.00
2022-10-18T20:56:40.059Z,101405.00
2022-10-18T20:59:10.316Z,101397.00
2022-10-18T21:01:39.604Z,101390.00
2022-10-18T21:04:10.268Z,101385.00
2022-10-18T21:06:43.510Z,101393.00
2022-10-18T21:09:18.308Z,101391.00
2022-10-18T21:11:49.629Z,101396.00
2022-10-18T21:14:21.184Z,101379.00
2022-10-18T21:16:50.216Z,101390.00
2022-10-18T21:19:26.906Z,101376.00
2022-10-18T21:21:57.558Z,101379.00
2022-10-18T21:24:26.513Z,101368.00
2022-10-18T21:26:54.948Z,101383.00
2022-10-18T21:29:24.949Z,101390.00
2022-10-18T21:31:59.503Z,101383.00
2022-10-18T21:34:27.193Z,101378.00
2022-10-18T21:36:54.752Z,101377.00
2022-10-18T21:41:57.193Z,101376.00
2022-10-18T21:44:24.867Z,101375.00
2022-10-18T21:46:52.622Z,101375.00
2022-10-18T21:49:20.552Z,101375.00
2022-10-18T21:51:47.963Z,101370.00
2022-10-18T21:54:16.929Z,101380.00
2022-10-18T21:56:44.383Z,101383.00
2022-10-18T21:59:13.829Z,101381.00
2022-10-18T22:01:43.727Z,101373.00
2022-10-18T22:04:24.473Z,101376.00
2022-10-18T22:06:52.172Z,101375.00
2022-10-18T22:09:21.498Z,101364.00
2022-10-18T22:11:52.654Z,101365.00
2022-10-18T22:14:20.975Z,101366.00
2022-10-18T22:16:48.585Z,101373.00
2022-10-18T22:19:16.205Z,101372.00
2022-10-18T22:21:43.909Z,101363.00
2022-10-18T22:24:11.426Z,101385.00
2022-10-18T22:26:42.086Z,101375.00
2022-10-18T22:29:19.019Z,101367.00
2022-10-18T22:31:50.842Z,101369.00
2022-10-18T22:34:28.568Z,101367.00
2022-10-18T22:36:56.698Z,101367.00
2022-10-18T22:39:24.818Z,101370.00
2022-10-18T22:41:56.066Z,101372.00
2022-10-18T22:44:23.892Z,101368.00
2022-10-18T22:46:51.501Z,101366.00
2022-10-18T22:49:19.196Z,101371.00
2022-10-18T22:51:46.554Z,101368.00
2022-10-18T22:54:14.142Z,101374.00
2022-10-18T22:56:41.742Z,101364.00
2022-10-18T22:59:09.274Z,101365.00
2022-10-18T23:01:36.748Z,101360.00
2022-10-18T23:04:04.760Z,101355.00
2022-10-18T23:06:35.427Z,101364.00
2022-10-18T23:09:07.546Z,101357.00
2022-10-18T23:11:36.383Z,101357.00
2022-10-18T23:14:06.052Z,101361.00
2022-10-18T23:16:33.627Z,101349.00
2022-10-18T23:19:01.342Z,101345.00
2022-10-18T23:21:29.684Z,101348.00
2022-10-18T23:23:57.763Z,101347.00
2022-10-18T23:26:27.872Z,101343.00
2022-10-18T23:28:56.118Z,101341.00
2022-10-18T23:31:29.095Z,101349.00
2022-10-18T23:33:59.692Z,101352.00
2022-10-18T23:36:27.824Z,101359.00
2022-10-18T23:38:55.703Z,101361.00
2022-10-18T23:41:23.885Z,101360.00
2022-10-18T23:43:51.920Z,101364.00
2022-10-18T23:46:19.917Z,101356.00
2022-10-18T23:48:48.273Z,101352.00
2022-10-18T23:51:16.309Z,101348.00
2022-10-18T23:53:44.572Z,101343.00
2022-10-18T23:56:15.185Z,101338.00
2022-10-18T23:58:44.441Z,101343.00
